Time;durP1;ratioP1;P1;durP2;ratioP2;P2;SDS_P1;SDS_P2;PMS_P1;PMS_P2;Temp;Humidity;BMP_temperature;BMP_pressure;BME280_temperature;BME280_humidity;BME280_pressure;Samples;Min_cycle;Max_cycle;Signal;HPM_P1;HPM_P2
2022/06/25 00:01:40;;;;;;;2.83;2.00;;;;;;;17.81;74.53;100748.09;5044532;28;20059;-77
2022/06/25 00:05:27;;;;;;;4.10;2.13;;;;;;;17.78;74.67;100748.28;5046657;28;20021;-76
2022/06/25 00:06:51;;;;;;;3.47;1.90;;;;;;;17.77;75.09;100745.72;5047600;28;20049;-77
2022/06/25 00:09:16;;;;;;;2.60;1.92;;;;;;;17.75;74.75;100751.06;5048498;28;20032;-76
2022/06/25 00:14:25;;;;;;;2.50;2.03;;;;;;;17.72;74.90;100760.00;5050568;28;20456;-76
2022/06/25 00:16:50;;;;;;;3.55;2.00;;;;;;;17.71;74.91;100757.44;5047083;28;20052;-76
2022/06/25 00:19:16;;;;;;;3.15;2.30;;;;;;;17.69;74.67;100760.19;5048534;28;20021;-76
2022/06/25 00:21:41;;;;;;;2.15;1.90;;;;;;;17.67;75.00;100761.22;5052850;28;20043;-76
2022/06/25 00:24:06;;;;;;;2.38;2.00;;;;;;;17.64;75.12;100759.56;5051630;28;20029;-76
2022/06/25 00:26:32;;;;;;;3.28;1.90;;;;;;;17.64;74.91;100764.00;5047156;28;20102;-76
2022/06/25 00:28:57;;;;;;;3.33;1.90;;;;;;;17.61;75.14;100765.00;5047050;28;20126;-76
2022/06/25 00:31:22;;;;;;;4.30;2.10;;;;;;;17.60;75.34;100758.06;5045132;28;20414;-76
2022/06/25 00:33:47;;;;;;;4.03;2.30;;;;;;;17.58;75.05;100759.94;5046228;28;20028;-76
2022/06/25 00:36:13;;;;;;;3.08;1.95;;;;;;;17.55;75.21;100762.75;5045110;28;20367;-76
2022/06/25 00:38:38;;;;;;;2.22;1.80;;;;;;;17.52;75.38;100765.53;5048621;28;20017;-76
2022/06/25 00:41:03;;;;;;;3.45;2.00;;;;;;;17.50;75.26;100756.88;5045689;28;20029;-76
2022/06/25 00:43:29;;;;;;;3.78;2.10;;;;;;;17.48;75.32;100762.25;5046018;28;20028;-76
2022/06/25 00:45:54;;;;;;;3.72;1.85;;;;;;;17.45;74.98;100760.63;5046243;28;20055;-76
2022/06/25 00:48:21;;;;;;;4.28;2.15;;;;;;;17.43;74.95;100770.38;5042534;28;20120;-76
2022/06/25 00:50:46;;;;;;;2.13;1.90;;;;;;;17.42;74.98;100767.84;5045572;28;20071;-76
2022/06/25 00:53:13;;;;;;;3.28;1.80;;;;;;;17.40;74.88;100764.44;5051435;28;20460;-76
2022/06/25 00:55:38;;;;;;;4.45;1.92;;;;;;;17.38;75.01;100763.69;5052643;28;20032;-76
2022/06/25 00:58:09;;;;;;;2.40;1.80;;;;;;;17.35;75.24;100762.06;5050142;28;20029;-76
2022/06/25 01:00:34;;;;;;;2.72;1.75;;;;;;;17.35;75.02;100766.47;5047956;28;20032;-76
2022/06/25 01:02:59;;;;;;;3.00;1.83;;;;;;;17.33;74.97;100765.75;5046848;28;20029;-75
2022/06/25 01:05:24;;;;;;;2.17;1.85;;;;;;;17.33;75.12;100778.88;5047428;28;20133;-76
2022/06/25 01:07:50;;;;;;;3.25;1.90;;;;;;;17.30;75.24;100782.50;5045513;28;20029;-76
2022/06/25 01:10:16;;;;;;;2.28;1.70;;;;;;;17.27;75.13;100780.91;5048717;28;20032;-76
2022/06/25 01:12:42;;;;;;;2.35;1.98;;;;;;;17.26;75.30;100780.97;5045083;28;20056;-76
2022/06/25 01:15:12;;;;;;;2.25;1.83;;;;;;;17.23;75.15;100786.44;5046242;28;20059;-76
2022/06/25 01:17:45;;;;;;;2.78;1.70;;;;;;;17.21;75.44;100788.28;5048672;28;20049;-76
2022/06/25 01:20:12;;;;;;;3.03;1.67;;;;;;;17.18;75.28;100786.66;5047712;28;20111;-76
2022/06/25 01:22:38;;;;;;;2.95;1.85;;;;;;;17.17;75.50;100784.13;5047507;28;20078;-76
2022/06/25 01:25:03;;;;;;;3.55;1.75;;;;;;;17.17;75.23;100784.13;5046724;28;20033;-76
2022/06/25 01:27:29;;;;;;;2.33;1.70;;;;;;;17.14;74.86;100793.88;5044391;28;20496;-76
2022/06/25 01:29:54;;;;;;;3.42;1.73;;;;;;;17.14;74.88;100793.03;5047313;28;20037;-76
2022/06/25 01:32:19;;;;;;;3.10;1.80;;;;;;;17.13;74.87;100799.22;5045644;28;20054;-76
2022/06/25 01:34:44;;;;;;;3.72;2.05;;;;;;;17.11;75.04;100801.91;5044621;28;20499;-76
2022/06/25 01:37:10;;;;;;;4.10;2.17;;;;;;;17.09;74.89;100809.03;5045639;28;20107;-76
2022/06/25 01:39:35;;;;;;;2.90;1.85;;;;;;;17.07;75.14;100805.66;5047133;28;20040;-76
2022/06/25 01:42:01;;;;;;;4.00;1.80;;;;;;;17.06;74.75;100810.97;5049594;28;20103;-76
2022/06/25 01:44:29;;;;;;;3.58;1.92;;;;;;;17.04;74.91;100816.34;5045324;28;20072;-76
2022/06/25 01:46:55;;;;;;;3.60;1.92;;;;;;;17.04;75.05;100810.22;5046068;28;20029;-76
2022/06/25 01:49:20;;;;;;;4.03;2.00;;;;;;;17.01;74.90;100811.25;5046686;28;20099;-76
2022/06/25 01:51:46;;;;;;;3.40;2.00;;;;;;;16.99;75.11;100819.19;5046278;28;20029;-76
2022/06/25 01:54:11;;;;;;;3.80;2.00;;;;;;;16.97;74.85;100822.84;5044818;28;20024;-76
2022/06/25 01:56:37;;;;;;;4.68;2.03;;;;;;;16.96;74.94;100829.03;5044660;28;20192;-76
2022/06/25 01:59:02;;;;;;;3.40;2.20;;;;;;;16.95;75.33;100822.06;5046653;28;20025;-76
2022/06/25 02:01:27;;;;;;;2.90;1.95;;;;;;;16.95;74.81;100832.56;5044925;28;21171;-76
2022/06/25 02:03:52;;;;;;;2.58;1.83;;;;;;;16.91;74.95;100831.88;5041942;28;20036;-76
2022/06/25 02:06:18;;;;;;;4.50;2.50;;;;;;;16.90;75.42;100842.47;5045208;28;20051;-76
2022/06/25 02:08:43;;;;;;;3.22;2.10;;;;;;;16.88;75.11;100837.28;5045887;28;20040;-76
2022/06/25 02:11:10;;;;;;;2.45;2.00;;;;;;;16.86;75.39;100833.88;5045315;28;20104;-75
2022/06/25 02:13:36;;;;;;;3.65;2.63;;;;;;;16.83;75.41;100840.16;5043754;28;20492;-76
2022/06/25 02:16:03;;;;;;;3.67;2.05;;;;;;;16.82;75.00;100843.69;5044907;28;20057;-76
2022/06/25 02:18:28;;;;;;;4.38;2.15;;;;;;;16.81;75.59;100862.19;5045082;28;20096;-76
2022/06/25 02:20:54;;;;;;;2.17;1.95;;;;;;;16.78;75.06;100857.91;5048191;28;20107;-76
2022/06/25 02:23:21;;;;;;;4.07;2.30;;;;;;;16.77;75.04;100861.47;5043947;28;21704;-76
2022/06/25 02:25:46;;;;;;;9.20;2.42;;;;;;;16.76;75.29;100862.41;5046990;28;20384;-76
2022/06/25 02:28:13;;;;;;;3.78;2.15;;;;;;;16.74;74.95;100860.78;5044959;28;20021;-76
2022/06/25 02:30:38;;;;;;;3.45;2.13;;;;;;;16.72;75.21;100863.50;5044286;28;20029;-76
2022/06/25 02:33:08;;;;;;;4.40;2.08;;;;;;;16.71;74.81;100861.81;5047115;28;20483;-76
2022/06/25 02:35:34;;;;;;;3.85;2.30;;;;;;;16.69;74.83;100864.50;5044727;28;20459;-75
2022/06/25 02:37:59;;;;;;;2.47;2.13;;;;;;;16.69;75.16;100863.66;5045160;28;20029;-76
2022/06/25 02:40:24;;;;;;;8.65;2.28;;;;;;;16.67;74.71;100870.78;5044444;28;20131;-75
2022/06/25 02:42:50;;;;;;;4.65;2.17;;;;;;;16.65;75.13;100862.94;5044910;28;20077;-76
2022/06/25 02:45:15;;;;;;;3.65;2.22;;;;;;;16.64;75.06;100873.53;5047574;28;20077;-76
2022/06/25 02:47:40;;;;;;;3.03;2.08;;;;;;;16.62;74.96;100884.16;5045993;28;20025;-76
2022/06/25 02:50:07;;;;;;;3.13;2.30;;;;;;;16.60;75.04;100880.75;5043718;28;20115;-76
2022/06/25 02:52:33;;;;;;;3.50;1.95;;;;;;;16.59;75.24;100888.69;5047621;28;20048;-76
2022/06/25 02:54:58;;;;;;;4.82;1.90;;;;;;;16.57;75.25;100891.41;5046231;28;20401;-76
2022/06/25 03:00:08;;;;;;;4.25;2.25;;;;;;;16.55;75.10;100888.00;5044281;28;20120;-76
2022/06/25 03:02:34;;;;;;;3.33;2.28;;;;;;;16.54;75.73;100887.16;5043062;28;20629;-76
2022/06/25 03:04:59;;;;;;;4.53;2.40;;;;;;;16.52;75.38;100896.88;5043764;28;20017;-76
2022/06/25 03:07:25;;;;;;;5.22;2.50;;;;;;;16.50;75.86;100895.25;5044762;28;20033;-76
2022/06/25 03:09:50;;;;;;;6.38;2.35;;;;;;;16.48;75.87;100891.88;5042747;28;21381;-76
2022/06/25 03:12:16;;;;;;;4.07;2.10;;;;;;;16.46;75.75;100899.81;5046887;28;20111;-76
2022/06/25 03:14:41;;;;;;;4.22;2.20;;;;;;;16.45;75.81;100903.34;5046981;28;20507;-76
2022/06/25 03:17:06;;;;;;;4.20;2.13;;;;;;;16.44;75.88;100904.28;5047922;28;20025;-76
2022/06/25 03:19:32;;;;;;;2.60;2.10;;;;;;;16.42;76.24;100900.88;5044848;28;20075;-76
2022/06/25 03:21:57;;;;;;;4.60;2.80;;;;;;;16.40;76.31;100900.09;5044631;28;20029;-76
2022/06/25 03:24:23;;;;;;;3.83;2.22;;;;;;;16.39;76.39;100898.44;5042705;28;20029;-76
2022/06/25 03:26:48;;;;;;;3.58;2.40;;;;;;;16.39;76.26;100901.06;5044939;28;20033;-76
2022/06/25 03:29:13;;;;;;;3.42;2.42;;;;;;;16.38;76.27;100905.44;5043443;28;20055;-76
2022/06/25 03:31:39;;;;;;;2.55;2.10;;;;;;;16.37;76.38;100902.91;5042621;28;22129;-76
2022/06/25 03:34:05;;;;;;;5.20;2.13;;;;;;;16.36;76.60;100901.19;5043265;28;20063;-76
2022/06/25 03:36:30;;;;;;;5.32;2.15;;;;;;;16.36;76.96;100903.81;5042197;28;20033;-75
2022/06/25 03:38:56;;;;;;;3.92;2.20;;;;;;;16.36;76.60;100898.56;5043898;28;20025;-76
2022/06/25 03:41:33;;;;;;;3.33;2.42;;;;;;;16.36;77.05;100903.81;5043996;28;20456;-75
2022/06/25 03:44:06;;;;;;;4.45;2.35;;;;;;;16.36;76.63;100909.91;5042196;28;20381;-75
2022/06/25 03:46:33;;;;;;;4.30;2.80;;;;;;;16.36;76.61;100914.31;5043220;28;20123;-76
2022/06/25 03:49:00;;;;;;;3.55;2.20;;;;;;;16.36;76.88;100909.91;5044773;28;20033;-76
2022/06/25 03:51:25;;;;;;;3.40;2.40;;;;;;;16.37;76.99;100910.78;5045930;28;20025;-76
2022/06/25 03:53:51;;;;;;;3.50;2.63;;;;;;;16.39;77.03;100903.69;5044552;28;20036;-76
2022/06/25 03:56:16;;;;;;;5.50;2.30;;;;;;;16.38;77.07;100905.44;5045285;28;20067;-76
2022/06/25 03:58:41;;;;;;;4.03;2.50;;;;;;;16.42;77.08;100914.00;5045403;28;20033;-75
2022/06/25 04:01:07;;;;;;;3.85;2.45;;;;;;;16.44;76.97;100913.94;5045540;28;20032;-76
2022/06/25 04:03:32;;;;;;;4.03;2.40;;;;;;;16.46;77.26;100910.31;5046637;28;20040;-76
2022/06/25 04:05:58;;;;;;;3.17;2.50;;;;;;;16.48;77.55;100912.88;5046069;28;20080;-76
2022/06/25 04:08:23;;;;;;;4.47;2.42;;;;;;;16.52;76.97;100914.41;5040950;28;20563;-75
2022/06/25 04:10:49;;;;;;;2.95;2.50;;;;;;;16.54;77.23;100918.69;5044493;28;20035;-76
2022/06/25 04:13:14;;;;;;;5.38;2.50;;;;;;;16.58;77.40;100921.13;5044098;28;20107;-75
2022/06/25 04:15:39;;;;;;;3.35;2.33;;;;;;;16.61;77.55;100910.47;5045426;28;20048;-75
2022/06/25 04:18:05;;;;;;;4.85;2.35;;;;;;;16.64;77.42;100912.94;5044744;28;20083;-76
2022/06/25 04:20:30;;;;;;;3.67;2.35;;;;;;;16.67;77.22;100923.31;5044173;28;20052;-75
2022/06/25 04:22:55;;;;;;;4.22;2.60;;;;;;;16.71;77.50;100914.34;5048803;28;20460;-75
2022/06/25 04:25:21;;;;;;;3.00;2.10;;;;;;;16.74;77.89;100908.09;5048112;28;22187;-76
2022/06/25 04:30:31;;;;;;;3.08;2.20;;;;;;;16.79;77.17;100916.59;5049802;28;20066;-76
2022/06/25 04:32:56;;;;;;;3.05;2.33;;;;;;;16.80;77.66;100924.38;5048220;28;20467;-76
2022/06/25 04:35:22;;;;;;;4.00;2.28;;;;;;;16.82;77.36;100924.31;5048558;28;20032;-76
2022/06/25 04:37:47;;;;;;;4.70;2.53;;;;;;;16.84;77.20;100925.94;5047867;28;20021;-76
2022/06/25 04:40:13;;;;;;;3.72;2.50;;;;;;;16.85;77.39;100924.13;5044588;28;20168;-76
2022/06/25 04:42:38;;;;;;;3.15;2.35;;;;;;;16.86;77.50;100935.53;5047538;28;22267;-76
2022/06/25 04:45:04;;;;;;;2.95;2.10;;;;;;;16.87;77.67;100937.22;5045146;28;20094;-76
2022/06/25 04:47:29;;;;;;;5.70;2.60;;;;;;;16.90;77.22;100943.16;5046466;28;20074;-76
2022/06/25 04:49:54;;;;;;;5.70;2.40;;;;;;;16.92;77.48;100943.06;5044651;28;21665;-75
2022/06/25 04:52:19;;;;;;;3.85;2.25;;;;;;;16.93;77.35;100939.50;5044026;28;20055;-76
2022/06/25 04:54:45;;;;;;;5.15;2.25;;;;;;;16.96;77.44;100952.53;5049609;28;20479;-76
2022/06/25 04:57:10;;;;;;;3.05;2.42;;;;;;;16.97;77.05;100952.47;5047181;28;20028;-75
2022/06/25 04:59:35;;;;;;;4.95;2.30;;;;;;;17.01;77.13;100954.91;5044099;28;20119;-75
2022/06/25 05:02:01;;;;;;;3.42;2.50;;;;;;;17.05;77.60;100949.44;5043833;28;21033;-76
2022/06/25 05:04:26;;;;;;;3.47;2.25;;;;;;;17.12;77.29;100961.34;5045638;28;20028;-75
2022/06/25 05:06:51;;;;;;;4.28;2.40;;;;;;;17.19;77.32;100961.03;5046709;28;20052;-76
2022/06/25 05:09:17;;;;;;;3.20;2.50;;;;;;;17.25;77.15;100965.97;5045093;28;20061;-76
2022/06/25 05:11:43;;;;;;;4.05;2.28;;;;;;;17.31;76.68;100960.38;5047441;28;20024;-75
2022/06/25 05:14:08;;;;;;;5.93;2.45;;;;;;;17.35;77.20;100963.69;5049554;28;20037;-76
2022/06/25 05:16:33;;;;;;;5.22;2.50;;;;;;;17.39;76.85;100966.09;5043625;28;20153;-76
2022/06/25 05:18:59;;;;;;;4.68;2.53;;;;;;;17.44;76.93;100961.44;5045943;28;20024;-76
2022/06/25 05:21:24;;;;;;;5.00;2.67;;;;;;;17.48;76.44;100956.88;5043998;28;20051;-76
2022/06/25 05:23:49;;;;;;;3.90;2.28;;;;;;;17.53;76.48;100960.09;5045211;28;20116;-76
2022/06/25 05:26:15;;;;;;;5.40;2.17;;;;;;;17.57;75.22;100963.44;5049142;28;20048;-76
2022/06/25 05:28:40;;;;;;;6.25;2.58;;;;;;;17.58;75.35;100962.50;5047971;28;20029;-76
2022/06/25 05:31:05;;;;;;;3.85;2.45;;;;;;;17.58;75.59;100970.41;5044329;28;20477;-76
2022/06/25 05:33:30;;;;;;;3.72;2.50;;;;;;;17.58;75.21;100967.75;5048041;28;20074;-76
2022/06/25 05:35:56;;;;;;;4.32;2.53;;;;;;;17.61;75.82;100970.22;5051927;28;20396;-75
2022/06/25 05:38:21;;;;;;;3.97;2.30;;;;;;;17.64;75.94;100980.56;5053036;28;20029;-76
2022/06/25 05:40:47;;;;;;;3.80;2.45;;;;;;;17.70;75.68;100982.00;5048120;28;20033;-75
2022/06/25 05:43:12;;;;;;;3.72;2.20;;;;;;;17.75;74.09;100985.25;5048494;28;20091;-76
2022/06/25 05:45:37;;;;;;;2.65;2.10;;;;;;;17.81;74.69;100994.59;5048456;28;20036;-76
2022/06/25 05:48:03;;;;;;;5.35;2.25;;;;;;;17.84;74.39;100994.44;5047764;28;20587;-76
2022/06/25 05:50:28;;;;;;;4.28;2.30;;;;;;;17.87;74.60;100989.03;5049822;28;20082;-76
2022/06/25 05:52:55;;;;;;;3.50;2.30;;;;;;;17.93;74.27;100988.69;5051533;28;20025;-76
2022/06/25 05:55:21;;;;;;;3.75;2.28;;;;;;;18.00;74.47;100999.78;5048366;28;20476;-76
2022/06/25 05:57:46;;;;;;;3.28;2.20;;;;;;;18.05;73.20;100995.94;5048041;28;20127;-76
2022/06/25 06:00:12;;;;;;;3.83;2.17;;;;;;;18.11;74.78;100997.38;5049399;28;20043;-76
2022/06/25 06:02:37;;;;;;;4.75;2.13;;;;;;;18.19;73.68;100999.59;5052336;28;20464;-76
2022/06/25 06:05:03;;;;;;;5.63;2.05;;;;;;;18.23;72.88;101006.41;5051406;28;20029;-76
2022/06/25 06:07:28;;;;;;;3.08;2.00;;;;;;;18.28;72.63;101009.59;5053621;28;20032;-76
2022/06/25 06:09:53;;;;;;;4.72;2.05;;;;;;;18.31;72.27;101003.34;5054877;28;20408;-76
2022/06/25 06:12:19;;;;;;;4.97;2.17;;;;;;;18.37;72.56;101012.69;5054882;28;20025;-76
2022/06/25 06:14:44;;;;;;;3.88;2.10;;;;;;;18.41;73.24;101022.94;5052745;28;20029;-76
2022/06/25 06:17:09;;;;;;;4.07;2.20;;;;;;;18.47;72.23;101011.22;5052824;28;20027;-76
2022/06/25 06:19:35;;;;;;;3.17;2.10;;;;;;;18.53;72.02;101012.69;5052177;28;20029;-76
2022/06/25 06:22:00;;;;;;;3.63;2.00;;;;;;;18.56;70.89;101012.47;5048064;28;20029;-76
2022/06/25 06:24:25;;;;;;;3.67;2.00;;;;;;;18.61;71.40;101016.56;5048362;28;20369;-75
2022/06/25 06:26:51;;;;;;;4.85;1.80;;;;;;;18.66;70.54;101018.94;5047837;28;20031;-76
2022/06/25 06:29:17;;;;;;;2.83;1.83;;;;;;;18.70;69.74;101016.97;5047213;28;20546;-76
2022/06/25 06:31:43;;;;;;;3.35;1.88;;;;;;;18.70;69.31;101017.84;5048322;28;20115;-77
2022/06/25 06:34:08;;;;;;;4.25;2.00;;;;;;;18.70;70.93;101011.69;5044947;28;20115;-76
2022/06/25 06:36:33;;;;;;;4.05;1.80;;;;;;;18.69;70.02;101015.28;5045488;28;20380;-75
2022/06/25 06:38:59;;;;;;;4.22;1.83;;;;;;;18.70;70.36;101019.59;5043255;28;20033;-76
2022/06/25 06:41:24;;;;;;;2.97;1.63;;;;;;;18.71;71.08;101022.13;5047214;28;20027;-76
2022/06/25 06:43:50;;;;;;;2.90;1.80;;;;;;;18.73;70.33;101019.44;5044536;28;20043;-75
2022/06/25 06:46:15;;;;;;;4.28;1.92;;;;;;;18.75;69.61;101023.66;5045839;28;20036;-76
2022/06/25 06:48:40;;;;;;;5.10;2.20;;;;;;;18.76;69.50;101019.25;5044244;28;20059;-77
2022/06/25 06:51:06;;;;;;;3.47;1.90;;;;;;;18.78;70.00;101023.50;5045712;28;20036;-75
2022/06/25 06:53:33;;;;;;;4.78;1.92;;;;;;;18.79;69.89;101021.69;5041503;28;20785;-76
2022/06/25 06:55:59;;;;;;;3.35;1.75;;;;;;;18.78;69.62;101027.94;5040968;28;20223;-76
2022/06/25 06:58:24;;;;;;;4.13;1.90;;;;;;;18.78;69.91;101028.78;5045152;28;20028;-76
2022/06/25 07:00:49;;;;;;;4.22;1.90;;;;;;;18.76;69.19;101025.38;5047036;28;20028;-76
2022/06/25 07:03:15;;;;;;;3.60;1.90;;;;;;;18.74;69.71;101027.25;5049168;28;20157;-76
2022/06/25 07:05:40;;;;;;;2.30;1.80;;;;;;;18.71;69.23;101027.41;5048212;28;20091;-76
2022/06/25 07:08:05;;;;;;;2.95;1.65;;;;;;;18.69;69.26;101034.59;5048583;28;20032;-76
2022/06/25 07:10:31;;;;;;;3.95;1.92;;;;;;;18.69;70.21;101033.72;5052137;28;20475;-76
2022/06/25 07:12:56;;;;;;;3.15;1.77;;;;;;;18.69;69.79;101036.34;5050450;28;20029;-76
2022/06/25 07:15:21;;;;;;;3.72;2.00;;;;;;;18.69;70.59;101039.00;5057189;28;20484;-76
2022/06/25 07:17:46;;;;;;;3.63;1.75;;;;;;;18.71;70.49;101037.94;5050547;28;20138;-76
2022/06/25 07:20:12;;;;;;;3.22;1.88;;;;;;;18.78;70.20;101039.31;5050571;28;20053;-76
2022/06/25 07:22:37;;;;;;;6.13;1.80;;;;;;;18.84;70.27;101038.09;5045216;28;20029;-76
2022/06/25 07:25:03;;;;;;;3.00;1.67;;;;;;;18.89;69.87;101038.69;5049738;28;20414;-76
2022/06/25 07:27:29;;;;;;;3.13;1.70;;;;;;;18.98;71.39;101042.63;5046760;28;21714;-76
2022/06/25 07:29:54;;;;;;;2.55;1.70;;;;;;;19.08;69.20;101041.13;5056377;28;20024;-76
2022/06/25 07:32:20;;;;;;;3.33;1.83;;;;;;;19.11;69.45;101037.50;5045874;28;20468;-76
2022/06/25 07:34:45;;;;;;;3.90;1.58;;;;;;;19.13;68.75;101042.66;5047703;28;20025;-81
2022/06/25 07:37:10;;;;;;;3.25;1.52;;;;;;;19.16;68.59;101045.97;5050194;28;20430;-75
2022/06/25 07:39:36;;;;;;;2.42;1.60;;;;;;;19.21;69.76;101041.28;5049552;28;20025;-75
2022/06/25 07:42:01;;;;;;;3.42;1.65;;;;;;;19.26;68.62;101041.84;5047410;28;20028;-76
2022/06/25 07:44:26;;;;;;;2.92;1.60;;;;;;;19.31;67.45;101040.72;5050511;28;20131;-76
2022/06/25 07:46:52;;;;;;;2.33;1.40;;;;;;;19.36;67.29;101041.28;5053537;28;20029;-76
2022/06/25 07:49:17;;;;;;;4.13;1.58;;;;;;;19.45;70.95;101032.84;5051667;28;20364;-76
2022/06/25 07:51:59;;;;;;;3.28;1.67;;;;;;;19.53;67.83;101041.13;5048825;28;20036;-76
2022/06/25 07:54:26;;;;;;;4.43;1.38;;;;;;;19.54;67.81;101045.47;5052870;28;20107;-77
2022/06/25 07:56:52;;;;;;;2.28;1.40;;;;;;;19.56;67.52;101046.22;5055679;28;20037;-76
2022/06/25 07:59:18;;;;;;;3.13;1.30;;;;;;;19.59;66.89;101044.34;5052335;28;20028;-75
2022/06/25 08:01:43;;;;;;;4.50;1.60;;;;;;;19.60;67.29;101051.31;5056310;28;20036;-76
2022/06/25 08:04:09;;;;;;;3.10;1.40;;;;;;;19.60;67.02;101046.03;5060575;28;20048;-76
2022/06/25 08:06:37;;;;;;;2.67;1.58;;;;;;;19.61;66.68;101047.75;5053432;28;20074;-77
2022/06/25 08:09:03;;;;;;;3.33;1.60;;;;;;;19.63;66.83;101045.88;5047254;28;20387;-76
2022/06/25 08:11:28;;;;;;;5.97;2.08;;;;;;;19.66;66.95;101048.28;5050414;28;20024;-75
2022/06/25 08:13:53;;;;;;;2.53;1.67;;;;;;;19.69;67.32;101045.47;5050418;28;20028;-75
2022/06/25 08:16:19;;;;;;;2.88;1.63;;;;;;;19.69;67.64;101045.47;5046278;28;20056;-75
2022/06/25 08:18:44;;;;;;;3.35;1.42;;;;;;;19.73;68.21;101043.50;5052188;28;20043;-75
2022/06/25 08:21:10;;;;;;;3.88;2.00;;;;;;;19.79;68.38;101046.63;5055749;28;20029;-75
2022/06/25 08:23:35;;;;;;;2.85;1.83;;;;;;;19.85;67.80;101048.88;5051974;28;20302;-75
2022/06/25 08:26:00;;;;;;;3.33;1.70;;;;;;;19.81;66.86;101049.16;5053430;28;20573;-74
2022/06/25 08:28:26;;;;;;;3.47;1.70;;;;;;;19.75;68.08;101042.47;5051262;28;20036;-76
2022/06/25 08:30:51;;;;;;;4.22;2.05;;;;;;;19.72;68.40;101050.56;5056026;28;20490;-76
2022/06/25 08:33:16;;;;;;;3.03;1.98;;;;;;;19.70;68.15;101047.16;5052587;28;20108;-75
2022/06/25 08:35:42;;;;;;;2.58;1.75;;;;;;;19.66;67.67;101051.78;5049631;28;20179;-75
2022/06/25 08:38:07;;;;;;;3.88;2.00;;;;;;;19.64;68.05;101052.84;5058594;28;20155;-75
2022/06/25 08:40:32;;;;;;;3.08;1.83;;;;;;;19.61;67.99;101059.13;5061779;28;20032;-75
2022/06/25 08:42:59;;;;;;;2.92;1.85;;;;;;;19.59;68.20;101052.25;5059676;28;20028;-75
2022/06/25 08:45:25;;;;;;;2.50;1.63;;;;;;;19.54;68.24;101050.75;5061282;28;20056;-75
2022/06/25 08:47:51;;;;;;;2.60;1.80;;;;;;;19.51;68.50;101058.84;5062909;28;20068;-75
2022/06/25 08:50:20;;;;;;;4.28;1.98;;;;;;;19.49;68.68;101067.81;5061998;28;20029;-75
2022/06/25 08:52:47;;;;;;;2.88;1.83;;;;;;;19.43;68.92;101061.09;5060131;28;20032;-75
2022/06/25 08:55:21;;;;;;;3.63;2.03;;;;;;;19.40;69.25;101059.47;5058106;28;20392;-75
2022/06/25 08:57:47;;;;;;;2.55;1.55;;;;;;;19.41;69.38;101065.63;5061626;28;20028;-75
2022/06/25 09:00:13;;;;;;;3.40;1.60;;;;;;;19.46;68.44;101060.94;5059365;28;20158;-76
2022/06/25 09:02:39;;;;;;;2.30;1.50;;;;;;;19.58;69.08;101059.31;5058201;28;20110;-75
2022/06/25 09:05:06;;;;;;;1.95;1.40;;;;;;;19.71;67.83;101060.28;5054401;28;20075;-75
2022/06/25 09:07:31;;;;;;;1.80;1.23;;;;;;;19.83;67.52;101063.94;5056526;28;20111;-75
2022/06/25 09:09:57;;;;;;;2.03;1.35;;;;;;;19.98;67.51;101064.00;5054396;28;20159;-75
2022/06/25 09:12:22;;;;;;;4.13;1.70;;;;;;;20.09;67.22;101064.16;5057239;28;20024;-76
2022/06/25 09:14:47;;;;;;;2.22;1.70;;;;;;;20.16;66.80;101065.47;5059688;28;20032;-75
2022/06/25 09:17:14;;;;;;;2.25;1.63;;;;;;;20.16;66.73;101060.19;5060437;28;20784;-75
2022/06/25 09:19:47;;;;;;;1.98;1.50;;;;;;;20.13;65.45;101063.03;5059798;28;20052;-75
2022/06/25 09:22:21;;;;;;;1.92;1.70;;;;;;;20.11;65.34;101058.78;5056370;28;20079;-75
2022/06/25 09:24:55;;;;;;;2.72;1.70;;;;;;;20.12;66.53;101057.84;5054724;28;20807;-75
2022/06/25 09:27:38;;;;;;;4.80;1.70;;;;;;;20.12;66.21;101058.69;5057711;28;20036;-75
2022/06/25 09:30:14;;;;;;;3.28;1.70;;;;;;;20.12;66.50;101063.97;5058771;28;20081;-75
2022/06/25 09:32:45;;;;;;;3.17;1.67;;;;;;;20.11;65.64;101062.28;5054114;28;20037;-75
2022/06/25 09:35:12;;;;;;;3.50;1.60;;;;;;;20.12;66.44;101069.28;5052441;28;20062;-75
2022/06/25 09:37:38;;;;;;;3.92;1.60;;;;;;;20.11;66.37;101061.41;5053642;28;20028;-75
2022/06/25 09:40:04;;;;;;;2.13;1.48;;;;;;;20.08;65.21;101066.88;5057912;28;20495;-75
2022/06/25 09:42:32;;;;;;;3.40;1.40;;;;;;;20.02;65.60;101060.19;5055587;28;20028;-75
2022/06/25 09:45:12;;;;;;;3.05;1.50;;;;;;;19.98;66.99;101059.56;5055531;28;20457;-75
2022/06/25 09:47:42;;;;;;;3.03;1.70;;;;;;;19.98;66.80;101058.72;5057182;28;20032;-76
2022/06/25 09:50:16;;;;;;;3.50;1.42;;;;;;;20.01;66.91;101063.78;5055496;28;20419;-75
2022/06/25 09:52:56;;;;;;;3.22;1.70;;;;;;;20.01;66.12;101061.16;5050612;28;20144;-75
2022/06/25 09:55:24;;;;;;;3.90;2.00;;;;;;;20.01;66.10;101064.66;5059777;28;20043;-75
2022/06/25 09:57:51;;;;;;;4.32;1.92;;;;;;;20.06;65.67;101072.28;5052850;28;20041;-75
2022/06/25 10:00:18;;;;;;;3.92;1.83;;;;;;;20.16;66.15;101070.75;5057283;28;20032;-75
2022/06/25 10:02:46;;;;;;;4.53;1.67;;;;;;;20.29;66.56;101064.72;5056898;28;20036;-75
2022/06/25 10:05:12;;;;;;;5.03;1.80;;;;;;;20.45;66.91;101062.78;5054399;28;20978;-75
2022/06/25 10:10:23;;;;;;;2.03;1.70;;;;;;;20.63;65.86;101058.09;5057519;28;20062;-75
2022/06/25 10:12:50;;;;;;;2.58;1.73;;;;;;;20.68;65.78;101067.53;5057047;28;20025;-75
2022/06/25 10:15:17;;;;;;;2.63;1.70;;;;;;;20.74;65.12;101070.63;5058878;28;20085;-75
2022/06/25 10:17:47;;;;;;;2.42;1.48;;;;;;;20.77;63.67;101070.47;5055032;28;20035;-75
2022/06/25 10:20:16;;;;;;;3.42;1.50;;;;;;;20.76;64.11;101070.53;5057488;28;20104;-75
2022/06/25 10:22:43;;;;;;;4.05;1.30;;;;;;;20.74;65.07;101073.25;5058528;28;20032;-75
2022/06/25 10:25:14;;;;;;;2.22;1.40;;;;;;;20.74;63.98;101073.25;5051450;28;20029;-76
2022/06/25 10:27:44;;;;;;;6.30;1.70;;;;;;;20.79;63.81;101077.44;5047526;28;20143;-75
2022/06/25 10:30:10;;;;;;;2.38;1.40;;;;;;;20.87;64.65;101075.13;5057033;28;20036;-75
2022/06/25 10:32:45;;;;;;;2.50;1.58;;;;;;;21.05;66.16;101070.44;5043988;28;20040;-75
2022/06/25 10:35:27;;;;;;;3.13;1.50;;;;;;;21.21;65.21;101072.88;5059631;28;20024;-75
2022/06/25 10:38:09;;;;;;;3.60;1.30;;;;;;;21.31;64.04;101068.69;5057318;28;20027;-75
2022/06/25 10:42:58;;;;;;;2.63;1.30;;;;;;;21.33;63.93;101071.22;5049087;28;20024;-75
2022/06/25 10:43:48;;;;;;;2.25;1.25;;;;;;;21.34;60.82;101068.47;5047329;28;20214;-76
2022/06/25 10:46:29;;;;;;;2.65;1.30;;;;;;;21.45;62.29;101061.59;5048803;28;20055;-75
2022/06/25 10:48:54;;;;;;;;;;;;;;;21.56;63.07;101056.41;5050198;28;20039;-75
2022/06/25 10:51:35;;;;;;;1.13;0.98;;;;;;;21.61;62.37;101061.41;5051477;28;20301;-75
2022/06/25 10:54:02;;;;;;;1.75;1.00;;;;;;;21.66;61.69;101056.66;5045234;28;20032;-75
2022/06/25 10:56:47;;;;;;;2.95;1.13;;;;;;;21.68;61.19;101060.91;5058257;28;20036;-75
2022/06/25 10:59:39;;;;;;;1.25;0.90;;;;;;;21.65;61.04;101071.69;5056083;28;20066;-76
2022/06/25 11:02:09;;;;;;;2.25;1.00;;;;;;;21.63;58.83;101070.09;5059282;28;20041;-76
2022/06/25 11:04:36;;;;;;;1.95;1.02;;;;;;;21.66;59.97;101056.66;5059522;28;20062;-75
2022/06/25 11:07:08;;;;;;;1.98;0.93;;;;;;;21.69;59.87;101056.44;5057577;28;20419;-75
2022/06/25 11:09:34;;;;;;;2.15;0.90;;;;;;;21.73;59.69;101057.06;5057612;28;20025;-75
2022/06/25 11:11:59;;;;;;;1.80;1.20;;;;;;;21.75;59.17;101045.44;5058453;28;20036;-75
2022/06/25 11:14:25;;;;;;;2.03;1.10;;;;;;;21.79;57.84;101043.41;5052771;28;20499;-75
2022/06/25 11:16:52;;;;;;;1.35;0.95;;;;;;;21.83;57.51;101044.91;5056369;28;20064;-75
2022/06/25 11:19:18;;;;;;;1.52;1.02;;;;;;;21.81;57.50;101044.97;5056087;28;20028;-75
2022/06/25 11:21:45;;;;;;;1.45;1.00;;;;;;;21.83;57.14;101042.25;5054707;28;20070;-75
2022/06/25 11:24:15;;;;;;;1.65;1.23;;;;;;;21.90;58.52;101048.78;5056832;28;20037;-75
2022/06/25 11:29:39;;;;;;;2.75;1.10;;;;;;;21.97;59.84;101057.13;5057247;28;20079;-75
2022/06/25 11:32:05;;;;;;;1.70;0.90;;;;;;;22.03;57.51;101053.22;5056931;28;20055;-76
2022/06/25 11:34:31;;;;;;;2.40;1.23;;;;;;;22.11;58.73;101056.16;5057365;28;21337;-76
2022/06/25 11:36:58;;;;;;;1.27;0.80;;;;;;;22.08;56.01;101049.31;5058478;28;20103;-76